createdAt,value
2023-04-10T00:00:30.949Z,101262.06
2023-04-10T00:01:53.916Z,101261.52
2023-04-10T00:02:57.137Z,101261.64
2023-04-10T00:04:00.458Z,101262.84
2023-04-10T00:05:04.199Z,101262.36
2023-04-10T00:06:07.732Z,101261.14
2023-04-10T00:07:11.269Z,101260.23
2023-04-10T00:08:14.500Z,101260.89
2023-04-10T00:09:17.477Z,101260.65
2023-04-10T00:10:20.781Z,101260.98
2023-04-10T00:11:25.351Z,101258.34
2023-04-10T00:12:28.301Z,101254.02
2023-04-10T00:13:31.364Z,101258.61
2023-04-10T00:14:34.207Z,101255.14
2023-04-10T00:15:37.077Z,101260.92
2023-04-10T00:16:40.234Z,101263.20
2023-04-10T00:17:43.214Z,101265.02
2023-04-10T00:18:47.239Z,101265.69
2023-04-10T00:19:50.143Z,101258.52
2023-04-10T00:20:53.414Z,101259.48
2023-04-10T00:21:56.755Z,101269.08
2023-04-10T00:22:59.734Z,101263.61
2023-04-10T00:24:02.616Z,101269.65
2023-04-10T00:25:06.626Z,101261.77
2023-04-10T00:26:09.806Z,101264.88
2023-04-10T00:27:13.114Z,101268.68
2023-04-10T00:28:17.331Z,101269.15
2023-04-10T00:29:20.462Z,101265.42
2023-04-10T00:30:23.466Z,101264.87
2023-04-10T00:31:26.478Z,101268.27
2023-04-10T00:32:29.428Z,101269.52
2023-04-10T00:33:32.351Z,101268.07
2023-04-10T00:34:35.565Z,101268.65
2023-04-10T00:35:38.861Z,101271.01
2023-04-10T00:36:42.012Z,101260.36
2023-04-10T00:37:44.876Z,101266.62
2023-04-10T00:38:48.848Z,101264.91
2023-04-10T00:39:51.708Z,101262.30
2023-04-10T00:40:54.544Z,101259.20
2023-04-10T00:41:57.772Z,101259.94
2023-04-10T00:43:00.837Z,101266.06
2023-04-10T00:44:03.764Z,101262.90
2023-04-10T00:45:07.420Z,101265.07
2023-04-10T00:46:10.746Z,101260.77
2023-04-10T00:47:14.412Z,101258.04
2023-04-10T00:48:17.565Z,101256.91
2023-04-10T00:49:21.969Z,101258.19
2023-04-10T00:50:24.861Z,101256.75
2023-04-10T00:51:27.957Z,101261.58
2023-04-10T00:52:32.504Z,101264.64
2023-04-10T00:53:35.702Z,101265.20
2023-04-10T00:54:38.773Z,101266.98
2023-04-10T00:55:41.856Z,101272.80
2023-04-10T00:56:46.678Z,101269.13
2023-04-10T00:57:49.601Z,101266.36
2023-04-10T00:58:52.712Z,101268.08
2023-04-10T00:59:56.124Z,101266.72
2023-04-10T01:00:59.068Z,101270.21
2023-04-10T01:02:02.648Z,101267.11
2023-04-10T01:03:06.053Z,101266.66
2023-04-10T01:04:11.042Z,101267.41
2023-04-10T01:05:14.375Z,101266.66
2023-04-10T01:06:45.126Z,101267.48
2023-04-10T01:08:12.885Z,101264.96
2023-04-10T01:09:34.189Z,101266.64
2023-04-10T01:10:48.644Z,101264.89
2023-04-10T01:11:59.198Z,101274.61
2023-04-10T01:13:20.459Z,101269.82
2023-04-10T01:15:00.741Z,101270.77
2023-04-10T01:16:20.753Z,101266.23
2023-04-10T01:17:41.643Z,101269.15
2023-04-10T01:18:49.971Z,101270.11
2023-04-10T01:20:07.147Z,101279.20
2023-04-10T01:21:14.927Z,101282.25
2023-04-10T01:22:21.886Z,101279.94
2023-04-10T01:23:44.562Z,101278.48
2023-04-10T01:25:02.050Z,101274.36
2023-04-10T01:26:07.433Z,101276.14
2023-04-10T01:27:40.409Z,101274.31
2023-04-10T01:28:49.540Z,101268.28
2023-04-10T01:29:56.766Z,101274.23
2023-04-10T01:31:02.783Z,101276.52
2023-04-10T01:32:13.924Z,101266.29
2023-04-10T01:33:20.706Z,101277.79
2023-04-10T01:34:46.818Z,101269.98
2023-04-10T01:35:56.470Z,101269.28
2023-04-10T01:37:02.387Z,101268.54
2023-04-10T01:38:07.308Z,101261.91
2023-04-10T01:39:11.365Z,101267.79
2023-04-10T01:40:16.643Z,101262.61
2023-04-10T01:41:22.097Z,101267.89
2023-04-10T01:42:31.232Z,101268.05
2023-04-10T01:43:34.984Z,101263.56
2023-04-10T01:44:42.173Z,101259.00
2023-04-10T01:45:47.872Z,101268.05
2023-04-10T01:46:51.768Z,101264.99
2023-04-10T01:47:56.264Z,101269.17
2023-04-10T01:49:02.411Z,101275.40
2023-04-10T01:50:06.973Z,101268.05
2023-04-10T01:51:11.747Z,101269.35
2023-04-10T01:52:15.960Z,101265.80
2023-04-10T01:53:24.811Z,101271.73
2023-04-10T01:54:29.013Z,101265.83
2023-04-10T01:55:33.476Z,101269.21
2023-04-10T01:56:42.616Z,101273.34
2023-04-10T01:57:49.167Z,101265.23
2023-04-10T01:58:53.017Z,101262.77
2023-04-10T01:59:55.950Z,101266.73
2023-04-10T02:00:58.937Z,101270.04
2023-04-10T02:02:02.271Z,101269.09
2023-04-10T02:03:05.469Z,101268.07
2023-04-10T02:04:08.494Z,101265.52
2023-04-10T02:05:11.651Z,101265.10
2023-04-10T02:06:44.937Z,101265.79
2023-04-10T02:08:13.199Z,101261.39
2023-04-10T02:09:27.934Z,101264.05
2023-04-10T02:10:51.139Z,101268.80
2023-04-10T02:12:05.975Z,101269.33
2023-04-10T02:13:11.757Z,101265.93
2023-04-10T02:14:18.302Z,101264.83
2023-04-10T02:15:27.574Z,101271.69
2023-04-10T02:16:32.043Z,101266.89
2023-04-10T02:17:37.371Z,101265.27
2023-04-10T02:18:42.620Z,101267.16
2023-04-10T02:19:48.439Z,101271.80
2023-04-10T02:20:52.774Z,101268.80
2023-04-10T02:21:57.037Z,101272.20
2023-04-10T02:23:03.838Z,101274.92
2023-04-10T02:24:07.238Z,101273.07
2023-04-10T02:25:10.621Z,101275.50
2023-04-10T02:26:13.470Z,101279.88
2023-04-10T02:27:16.641Z,101281.23
2023-04-10T02:28:19.530Z,101275.79
2023-04-10T02:29:22.771Z,101276.19
2023-04-10T02:30:26.008Z,101275.17
2023-04-10T02:31:29.088Z,101282.20
2023-04-10T02:32:35.314Z,101282.92
2023-04-10T02:33:38.229Z,101288.33
2023-04-10T02:34:43.839Z,101279.52
2023-04-10T02:35:46.749Z,101287.66
2023-04-10T02:36:49.648Z,101282.23
2023-04-10T02:37:52.790Z,101281.52
2023-04-10T02:38:55.868Z,101286.17
2023-04-10T02:39:59.678Z,101279.52
2023-04-10T02:41:02.906Z,101285.02
2023-04-10T02:42:05.838Z,101280.39
2023-04-10T02:43:08.876Z,101281.30
2023-04-10T02:44:11.753Z,101278.27
2023-04-10T02:45:14.717Z,101280.11
2023-04-10T02:46:18.897Z,101280.59
2023-04-10T02:47:22.030Z,101279.71
2023-04-10T02:48:25.061Z,101279.46
2023-04-10T02:49:31.692Z,101283.02
2023-04-10T02:50:35.738Z,101276.29
2023-04-10T02:51:38.626Z,101280.45
2023-04-10T02:52:42.171Z,101280.05
2023-04-10T02:53:45.393Z,101280.58
2023-04-10T02:54:52.861Z,101277.64
2023-04-10T02:55:56.048Z,101281.67
2023-04-10T02:56:59.038Z,101282.16
2023-04-10T02:58:01.914Z,101280.88
2023-04-10T02:59:05.125Z,101281.04
2023-04-10T03:00:10.323Z,101276.29
2023-04-10T03:01:55.104Z,101278.27
2023-04-10T03:02:58.362Z,101279.01
2023-04-10T03:04:04.395Z,101278.79
2023-04-10T03:05:11.830Z,101279.91
2023-04-10T03:06:14.898Z,101275.45
2023-04-10T03:07:19.073Z,101272.92
2023-04-10T03:08:22.421Z,101280.63
2023-04-10T03:09:26.553Z,101275.96
2023-04-10T03:10:30.033Z,101277.44
2023-04-10T03:11:33.245Z,101278.31
2023-04-10T03:12:37.135Z,101271.52
2023-04-10T03:13:40.005Z,101274.98
2023-04-10T03:14:42.851Z,101273.52
2023-04-10T03:15:45.714Z,101280.98
2023-04-10T03:16:48.797Z,101273.98
2023-04-10T03:17:51.980Z,101276.05
2023-04-10T03:18:54.881Z,101269.95
2023-04-10T03:19:57.963Z,101275.54
2023-04-10T03:21:02.185Z,101275.46
2023-04-10T03:22:05.097Z,101281.33
2023-04-10T03:23:08.113Z,101275.92
2023-04-10T03:24:11.430Z,101280.08
2023-04-10T03:25:14.482Z,101275.81
2023-04-10T03:26:17.414Z,101274.52
2023-04-10T03:27:20.816Z,101276.85
2023-04-10T03:28:23.911Z,101271.54
2023-04-10T03:29:26.772Z,101271.16
2023-04-10T03:30:31.504Z,101271.11
2023-04-10T03:31:34.433Z,101270.37
2023-04-10T03:32:37.944Z,101272.34
2023-04-10T03:33:41.044Z,101271.36
2023-04-10T03:34:43.975Z,101270.11
2023-04-10T03:35:47.553Z,101272.55
2023-04-10T03:36:50.597Z,101271.43
2023-04-10T03:37:53.508Z,101274.88
2023-04-10T03:38:56.537Z,101265.13
2023-04-10T03:39:59.463Z,101274.05
2023-04-10T03:41:02.449Z,101275.94
2023-04-10T03:42:07.042Z,101271.10
2023-04-10T03:43:09.916Z,101276.61
2023-04-10T03:44:12.880Z,101275.20
2023-04-10T03:45:15.832Z,101276.34
2023-04-10T03:46:18.734Z,101281.05
2023-04-10T03:47:21.743Z,101279.23
2023-04-10T03:48:30.715Z,101274.33
2023-04-10T03:49:33.860Z,101281.64
2023-04-10T03:50:40.689Z,101279.95
2023-04-10T03:51:43.598Z,101272.36
2023-04-10T03:52:46.507Z,101280.39
2023-04-10T03:53:51.843Z,101282.76
2023-04-10T03:54:55.674Z,101281.13
2023-04-10T03:56:03.255Z,101281.66
2023-04-10T03:57:06.178Z,101281.20
2023-04-10T03:58:09.331Z,101279.30
2023-04-10T03:59:13.363Z,101275.95
2023-04-10T04:00:17.407Z,101269.73
2023-04-10T04:01:23.358Z,101275.64
2023-04-10T04:02:36.188Z,101277.44
2023-04-10T04:03:39.801Z,101278.16
2023-04-10T04:05:02.852Z,101276.25
2023-04-10T04:06:19.893Z,101283.41
2023-04-10T04:07:59.325Z,101277.48
2023-04-10T04:09:13.613Z,101283.50
2023-04-10T04:10:42.644Z,101281.29
2023-04-10T04:11:53.576Z,101288.04
2023-04-10T04:13:11.477Z,101291.79
2023-04-10T04:14:25.452Z,101287.45
2023-04-10T04:16:00.170Z,101288.06
2023-04-10T04:17:15.393Z,101297.70
2023-04-10T04:18:41.220Z,101297.65
2023-04-10T04:20:07.684Z,101297.10
2023-04-10T04:21:34.501Z,101298.42
2023-04-10T04:23:03.388Z,101297.61
2023-04-10T04:24:38.229Z,101299.52
2023-04-10T04:25:52.883Z,101307.00
2023-04-10T04:27:08.073Z,101307.89
2023-04-10T04:28:23.630Z,101303.84
2023-04-10T04:29:55.770Z,101300.38
2023-04-10T04:31:02.662Z,101308.99
2023-04-10T04:32:37.648Z,101302.63
2023-04-10T04:34:00.629Z,101311.81
2023-04-10T04:35:26.060Z,101303.22
2023-04-10T04:36:47.990Z,101311.71
2023-04-10T04:38:09.302Z,101309.58
2023-04-10T04:39:27.103Z,101316.02
2023-04-10T04:41:07.770Z,101310.23
2023-04-10T04:42:33.404Z,101310.98
2023-04-10T04:43:43.471Z,101321.38
2023-04-10T04:44:57.766Z,101324.23
2023-04-10T04:46:04.092Z,101330.95
2023-04-10T04:47:25.943Z,101321.55
2023-04-10T04:49:04.027Z,101320.55
2023-04-10T04:50:29.920Z,101320.70
2023-04-10T04:51:53.131Z,101320.44
2023-04-10T04:53:13.477Z,101320.83
2023-04-10T04:54:25.008Z,101328.95
2023-04-10T04:55:46.508Z,101328.53
2023-04-10T04:57:14.996Z,101321.42
2023-04-10T04:58:41.325Z,101322.08
2023-04-10T05:00:10.947Z,101318.92
2023-04-10T05:01:39.823Z,101319.89
2023-04-10T05:03:12.422Z,101320.51
2023-04-10T05:04:49.163Z,101321.64
2023-04-10T05:06:10.654Z,101323.46
2023-04-10T05:07:45.017Z,101325.38
2023-04-10T05:09:06.730Z,101331.80
2023-04-10T05:10:28.316Z,101336.12
2023-04-10T05:11:47.911Z,101333.48
2023-04-10T05:13:09.500Z,101335.79
2023-04-10T05:14:23.409Z,101336.54
2023-04-10T05:15:37.856Z,101336.83
2023-04-10T05:16:50.053Z,101331.35
2023-04-10T05:18:19.784Z,101327.85
2023-04-10T05:19:34.495Z,101332.56
2023-04-10T05:20:56.184Z,101333.38
2023-04-10T05:22:21.864Z,101329.25
2023-04-10T05:23:43.252Z,101330.05
2023-04-10T05:25:05.572Z,101330.28
2023-04-10T05:26:31.250Z,101331.55
2023-04-10T05:27:56.166Z,101334.95
2023-04-10T05:29:34.793Z,101336.02
2023-04-10T05:30:57.997Z,101335.89
2023-04-10T05:32:20.868Z,101341.13
2023-04-10T05:33:50.125Z,101340.47
2023-04-10T05:35:02.158Z,101348.20
2023-04-10T05:36:19.609Z,101345.25
2023-04-10T05:37:30.372Z,101337.92
2023-04-10T05:38:51.579Z,101344.36
2023-04-10T05:40:14.941Z,101332.32
2023-04-10T05:41:45.201Z,101332.91
2023-04-10T05:43:06.663Z,101334.14
2023-04-10T05:44:27.934Z,101340.33
2023-04-10T05:45:33.376Z,101337.09
2023-04-10T05:46:52.901Z,101334.61
2023-04-10T05:47:59.023Z,101341.21
2023-04-10T05:49:22.567Z,101333.80
2023-04-10T05:50:43.786Z,101332.19
2023-04-10T05:51:52.105Z,101342.95
2023-04-10T05:53:13.372Z,101342.87
2023-04-10T05:54:35.119Z,101335.15
2023-04-10T05:55:57.663Z,101339.26
2023-04-10T05:57:18.676Z,101341.08
2023-04-10T05:58:56.677Z,101338.90
2023-04-10T06:00:35.023Z,101342.00
2023-04-10T06:02:02.282Z,101344.30
2023-04-10T06:03:05.522Z,101345.55
2023-04-10T06:04:09.016Z,101347.28
2023-04-10T06:05:12.773Z,101349.54
2023-04-10T06:06:16.505Z,101345.98
2023-04-10T06:07:19.326Z,101350.77
2023-04-10T06:08:23.050Z,101348.84
2023-04-10T06:09:25.915Z,101353.36
2023-04-10T06:10:31.222Z,101351.67
2023-04-10T06:11:34.188Z,101355.09
2023-04-10T06:12:37.245Z,101361.81
2023-04-10T06:13:40.624Z,101353.06
2023-04-10T06:14:43.655Z,101349.52
2023-04-10T06:15:47.859Z,101350.86
2023-04-10T06:16:50.792Z,101351.48
2023-04-10T06:17:54.235Z,101353.30
2023-04-10T06:18:57.343Z,101352.52
2023-04-10T06:20:04.701Z,101354.69
2023-04-10T06:21:08.005Z,101361.78
2023-04-10T06:22:11.026Z,101357.29
2023-04-10T06:23:14.223Z,101350.87
2023-04-10T06:24:17.146Z,101347.97
2023-04-10T06:25:23.220Z,101355.73
2023-04-10T06:26:30.360Z,101359.48
2023-04-10T06:27:35.915Z,101351.64
2023-04-10T06:28:38.862Z,101357.96
2023-04-10T06:29:42.216Z,101353.89
2023-04-10T06:30:45.529Z,101355.92
2023-04-10T06:31:48.976Z,101357.23
2023-04-10T06:32:53.724Z,101357.03
2023-04-10T06:33:56.845Z,101362.89
2023-04-10T06:34:59.865Z,101355.47
2023-04-10T06:36:04.114Z,101349.02
2023-04-10T06:37:09.684Z,101348.21
2023-04-10T06:38:13.293Z,101361.27
2023-04-10T06:39:16.296Z,101350.81
2023-04-10T06:40:19.171Z,101349.70
2023-04-10T06:41:22.054Z,101344.77
2023-04-10T06:42:29.294Z,101360.31
2023-04-10T06:43:38.092Z,101354.02
2023-04-10T06:44:40.972Z,101356.38
2023-04-10T06:45:43.891Z,101353.15
2023-04-10T06:46:46.833Z,101353.38
2023-04-10T06:47:49.896Z,101352.78
2023-04-10T06:48:53.108Z,101351.57
2023-04-10T06:49:56.264Z,101350.56
2023-04-10T06:51:02.276Z,101351.55
2023-04-10T06:52:05.891Z,101354.48
2023-04-10T06:53:08.884Z,101353.25
2023-04-10T06:54:11.839Z,101350.48
2023-04-10T06:55:14.869Z,101355.54
2023-04-10T06:56:17.898Z,101356.66
2023-04-10T06:57:21.338Z,101356.23
2023-04-10T06:58:24.781Z,101353.25
2023-04-10T06:59:27.735Z,101355.34
2023-04-10T07:00:31.066Z,101358.11
2023-04-10T07:01:34.090Z,101355.63
2023-04-10T07:02:37.240Z,101360.91
2023-04-10T07:03:40.183Z,101360.04
2023-04-10T07:04:43.004Z,101356.11
2023-04-10T07:05:46.294Z,101357.05
2023-04-10T07:06:49.143Z,101357.77
2023-04-10T07:07:52.050Z,101358.77
2023-04-10T07:08:55.101Z,101357.34
2023-04-10T07:09:58.697Z,101359.00
2023-04-10T07:11:01.668Z,101359.27
2023-04-10T07:12:05.576Z,101362.46
2023-04-10T07:13:08.536Z,101363.87
2023-04-10T07:14:11.892Z,101361.77
2023-04-10T07:15:14.896Z,101364.16
2023-04-10T07:16:18.654Z,101361.34
2023-04-10T07:17:22.187Z,101362.50
2023-04-10T07:18:25.081Z,101360.89
2023-04-10T07:19:28.201Z,101358.58
2023-04-10T07:20:31.069Z,101362.91
2023-04-10T07:21:33.998Z,101363.83
2023-04-10T07:22:36.856Z,101365.06
2023-04-10T07:23:39.888Z,101362.72
2023-04-10T07:24:42.806Z,101364.44
2023-04-10T07:25:46.696Z,101367.14
2023-04-10T07:26:49.714Z,101365.27
2023-04-10T07:27:52.554Z,101365.02
2023-04-10T07:28:55.655Z,101368.09
2023-04-10T07:29:58.727Z,101374.66
2023-04-10T07:31:01.800Z,101373.04
2023-04-10T07:32:05.113Z,101372.98
2023-04-10T07:33:08.334Z,101372.48
2023-04-10T07:34:12.100Z,101370.41
2023-04-10T07:35:15.141Z,101373.54
2023-04-10T07:36:18.160Z,101370.04
2023-04-10T07:37:21.112Z,101371.73
2023-04-10T07:38:24.814Z,101373.64
2023-04-10T07:39:27.710Z,101369.54
2023-04-10T07:40:30.888Z,101372.27
2023-04-10T07:41:33.963Z,101369.81
2023-04-10T07:42:36.977Z,101368.12
2023-04-10T07:43:39.808Z,101370.48
2023-04-10T07:44:42.692Z,101372.98
2023-04-10T07:45:47.397Z,101368.34
2023-04-10T07:46:52.384Z,101369.77
2023-04-10T07:47:55.487Z,101371.63
2023-04-10T07:48:58.483Z,101374.64
2023-04-10T07:50:01.510Z,101367.17
2023-04-10T07:51:05.222Z,101369.64
2023-04-10T07:52:08.113Z,101361.95
2023-04-10T07:53:11.122Z,101367.54
2023-04-10T07:54:14.100Z,101366.77
2023-04-10T07:55:17.154Z,101361.13
2023-04-10T07:56:21.924Z,101368.06
2023-04-10T07:57:24.827Z,101363.45
2023-04-10T07:58:27.776Z,101361.27
2023-04-10T07:59:30.700Z,101362.27
2023-04-10T08:00:34.346Z,101362.69
2023-04-10T08:01:37.411Z,101363.40
2023-04-10T08:02:43.346Z,101358.36
2023-04-10T08:03:47.824Z,101364.29
2023-04-10T08:04:51.295Z,101359.90
2023-04-10T08:05:54.372Z,101358.48
2023-04-10T08:06:57.355Z,101361.22
2023-04-10T08:08:00.361Z,101361.39
2023-04-10T08:09:03.353Z,101357.98
2023-04-10T08:10:06.623Z,101356.61
2023-04-10T08:11:24.816Z,101360.50
2023-04-10T08:12:27.659Z,101362.35
2023-04-10T08:13:30.523Z,101362.52
2023-04-10T08:14:33.376Z,101363.63
2023-04-10T08:15:36.284Z,101361.48
2023-04-10T08:16:39.670Z,101361.32
2023-04-10T08:17:42.608Z,101361.27
2023-04-10T08:18:45.845Z,101365.60
2023-04-10T08:19:48.683Z,101360.94
2023-04-10T08:20:51.690Z,101361.50
2023-04-10T08:21:54.548Z,101357.21
2023-04-10T08:23:03.129Z,101357.27
2023-04-10T08:24:16.091Z,101357.98
2023-04-10T08:25:19.003Z,101362.86
2023-04-10T08:26:22.249Z,101363.52
2023-04-10T08:27:25.391Z,101360.55
2023-04-10T08:28:28.296Z,101358.52
2023-04-10T08:29:31.252Z,101360.35
2023-04-10T08:30:34.146Z,101359.95
2023-04-10T08:31:37.089Z,101354.25
2023-04-10T08:32:40.213Z,101359.55
2023-04-10T08:33:43.171Z,101364.11
2023-04-10T08:34:46.099Z,101360.11
2023-04-10T08:35:51.820Z,101360.60
2023-04-10T08:36:55.680Z,101359.39
2023-04-10T08:38:12.525Z,101353.91
2023-04-10T08:39:18.512Z,101349.70
2023-04-10T08:40:21.531Z,101351.52
2023-04-10T08:41:24.452Z,101350.75
2023-04-10T08:42:27.546Z,101351.30
2023-04-10T08:43:30.520Z,101349.45
2023-04-10T08:44:33.614Z,101349.72
2023-04-10T08:45:36.488Z,101347.79
2023-04-10T08:46:43.744Z,101348.45
2023-04-10T08:47:51.661Z,101347.13
2023-04-10T08:49:22.940Z,101349.27
2023-04-10T08:50:33.526Z,101353.60
2023-04-10T08:51:39.821Z,101355.13
2023-04-10T08:52:45.471Z,101358.09
2023-04-10T08:53:51.659Z,101358.25
2023-04-10T08:54:56.700Z,101349.82
2023-04-10T08:56:03.234Z,101346.41
2023-04-10T08:57:09.182Z,101343.90
2023-04-10T08:58:14.075Z,101344.67
2023-04-10T08:59:17.386Z,101350.48
2023-04-10T09:00:23.297Z,101344.34
2023-04-10T09:01:26.628Z,101343.04
2023-04-10T09:02:29.738Z,101343.09
2023-04-10T09:03:33.089Z,101345.23
2023-04-10T09:04:36.957Z,101344.72
2023-04-10T09:05:40.071Z,101342.70
2023-04-10T09:06:43.277Z,101340.79
2023-04-10T09:07:46.125Z,101342.14
2023-04-10T09:08:48.996Z,101340.23
2023-04-10T09:09:51.947Z,101339.41
2023-04-10T09:10:56.322Z,101339.69
2023-04-10T09:12:01.626Z,101336.30
2023-04-10T09:13:04.946Z,101335.91
2023-04-10T09:14:21.307Z,101340.89
2023-04-10T09:15:24.645Z,101333.54
2023-04-10T09:16:30.495Z,101332.80
2023-04-10T09:17:37.774Z,101336.79
2023-04-10T09:18:48.818Z,101334.54
2023-04-10T09:19:56.459Z,101323.95
2023-04-10T09:21:07.265Z,101330.42
2023-04-10T09:22:10.676Z,101326.67
2023-04-10T09:23:21.572Z,101330.30
2023-04-10T09:24:25.394Z,101325.20
2023-04-10T09:25:34.589Z,101326.80
2023-04-10T09:26:37.516Z,101330.63
2023-04-10T09:27:42.304Z,101331.53
2023-04-10T09:29:00.246Z,101324.56
2023-04-10T09:30:04.554Z,101326.58
2023-04-10T09:31:28.756Z,101326.52
2023-04-10T09:32:45.835Z,101323.35
2023-04-10T09:33:48.688Z,101320.98
2023-04-10T09:34:58.547Z,101320.14
2023-04-10T09:36:01.427Z,101314.87
2023-04-10T09:37:04.602Z,101314.52
2023-04-10T09:38:17.945Z,101314.02
2023-04-10T09:39:21.302Z,101313.04
2023-04-10T09:40:25.769Z,101312.11
2023-04-10T09:41:28.880Z,101313.73
2023-04-10T09:42:32.758Z,101312.38
2023-04-10T09:43:36.076Z,101308.85
2023-04-10T09:44:40.644Z,101310.71
2023-04-10T09:45:52.019Z,101313.39
2023-04-10T09:46:55.705Z,101312.23
2023-04-10T09:48:08.716Z,101310.77
2023-04-10T09:49:11.767Z,101309.58
2023-04-10T09:50:14.718Z,101311.48
2023-04-10T09:51:34.947Z,101306.27
2023-04-10T09:52:38.395Z,101303.08
2023-04-10T09:53:51.159Z,101307.58
2023-04-10T09:54:55.814Z,101305.68
2023-04-10T09:55:59.181Z,101301.02
2023-04-10T09:57:02.924Z,101297.87
2023-04-10T09:58:06.650Z,101294.30
2023-04-10T09:59:10.438Z,101295.36
2023-04-10T10:00:14.874Z,101295.20
2023-04-10T10:01:18.249Z,101296.39
2023-04-10T10:02:23.148Z,101295.79
2023-04-10T10:03:27.021Z,101296.20
2023-04-10T10:04:30.357Z,101293.33
2023-04-10T10:05:36.480Z,101296.54
2023-04-10T10:06:39.888Z,101297.05
2023-04-10T10:07:42.908Z,101295.52
2023-04-10T10:08:45.901Z,101295.08
2023-04-10T10:09:51.778Z,101296.40
2023-04-10T10:10:59.268Z,101289.55
2023-04-10T10:12:04.025Z,101288.45
2023-04-10T10:13:09.010Z,101286.13
2023-04-10T10:14:17.524Z,101281.67
2023-04-10T10:15:39.424Z,101278.02
2023-04-10T10:16:52.620Z,101280.08
2023-04-10T10:18:07.922Z,101276.04
2023-04-10T10:19:17.910Z,101275.22
2023-04-10T10:20:24.077Z,101275.64
2023-04-10T10:21:29.599Z,101267.44
2023-04-10T10:22:32.847Z,101268.90
2023-04-10T10:23:37.550Z,101272.11
2023-04-10T10:24:45.852Z,101269.34
2023-04-10T10:25:50.579Z,101269.40
2023-04-10T10:26:55.765Z,101263.70
2023-04-10T10:28:02.821Z,101261.67
2023-04-10T10:29:10.680Z,101255.60
2023-04-10T10:30:28.070Z,101253.91
2023-04-10T10:31:33.991Z,101256.04
2023-04-10T10:32:37.180Z,101256.95
2023-04-10T10:33:41.197Z,101258.76
2023-04-10T10:34:44.985Z,101256.45
2023-04-10T10:35:47.978Z,101256.92
2023-04-10T10:36:51.130Z,101254.25
2023-04-10T10:37:55.214Z,101256.28
2023-04-10T10:39:36.734Z,101251.54
2023-04-10T10:41:02.693Z,101253.80
2023-04-10T10:42:08.473Z,101254.98
2023-04-10T10:43:14.362Z,101257.31
2023-04-10T10:44:37.449Z,101259.70
2023-04-10T10:45:50.438Z,101255.92
2023-04-10T10:47:07.983Z,101256.66
2023-04-10T10:48:11.372Z,101257.35
2023-04-10T10:49:14.217Z,101254.73
2023-04-10T10:50:17.111Z,101252.82
2023-04-10T10:51:20.025Z,101248.60
2023-04-10T10:52:38.661Z,101249.35
2023-04-10T10:53:45.281Z,101245.17
2023-04-10T10:54:58.896Z,101246.20
2023-04-10T10:56:22.804Z,101246.34
2023-04-10T10:57:54.738Z,101247.91
2023-04-10T10:58:59.282Z,101246.70
2023-04-10T11:00:02.807Z,101244.23
2023-04-10T11:01:09.800Z,101245.18
2023-04-10T11:02:16.295Z,101241.08
2023-04-10T11:03:19.534Z,101243.77
2023-04-10T11:04:42.506Z,101242.75
2023-04-10T11:05:57.186Z,101240.80
2023-04-10T11:07:00.054Z,101245.30
2023-04-10T11:08:02.971Z,101235.25
2023-04-10T11:09:05.954Z,101233.80
2023-04-10T11:10:09.249Z,101231.19
2023-04-10T11:11:18.622Z,101227.16
2023-04-10T11:12:25.584Z,101232.15
2023-04-10T11:13:28.912Z,101228.95
2023-04-10T11:14:33.349Z,101226.54
2023-04-10T11:15:36.865Z,101220.77
2023-04-10T11:16:44.374Z,101215.27
2023-04-10T11:17:54.598Z,101220.54
2023-04-10T11:19:20.753Z,101220.09
2023-04-10T11:20:27.524Z,101224.05
2023-04-10T11:21:31.664Z,101222.21
2023-04-10T11:23:11.286Z,101216.77
2023-04-10T11:24:14.290Z,101220.91
2023-04-10T11:25:17.307Z,101215.77
2023-04-10T11:26:35.842Z,101214.97
2023-04-10T11:27:46.325Z,101211.80
2023-04-10T11:28:49.306Z,101211.83
2023-04-10T11:29:52.758Z,101212.80
2023-04-10T11:30:56.434Z,101209.88
2023-04-10T11:32:01.795Z,101208.59
2023-04-10T11:33:05.962Z,101207.41
2023-04-10T11:34:13.366Z,101205.69
2023-04-10T11:35:20.017Z,101201.88
2023-04-10T11:36:24.375Z,101201.91
2023-04-10T11:37:27.547Z,101199.58
2023-04-10T11:38:30.738Z,101199.74
2023-04-10T11:39:33.711Z,101196.89
2023-04-10T11:40:54.557Z,101200.09
2023-04-10T11:41:58.015Z,101195.83
2023-04-10T11:43:19.128Z,101193.67
2023-04-10T11:44:31.571Z,101191.92
2023-04-10T11:45:34.518Z,101187.70
2023-04-10T11:46:39.422Z,101191.16
2023-04-10T11:47:42.322Z,101187.16
2023-04-10T11:48:45.642Z,101187.05
2023-04-10T11:49:55.970Z,101182.17
2023-04-10T11:51:01.705Z,101182.29
2023-04-10T11:52:04.748Z,101180.55
2023-04-10T11:53:21.660Z,101181.83
2023-04-10T11:54:26.457Z,101177.38
2023-04-10T11:55:39.475Z,101174.06
2023-04-10T11:56:44.721Z,101175.40
2023-04-10T11:57:47.656Z,101174.33
2023-04-10T11:58:54.342Z,101173.45
2023-04-10T11:59:59.174Z,101174.09
2023-04-10T12:01:03.147Z,101172.16
2023-04-10T12:02:12.907Z,101163.51
2023-04-10T12:03:16.134Z,101161.63
2023-04-10T12:04:21.966Z,101157.02
2023-04-10T12:05:25.025Z,101159.38
2023-04-10T12:06:28.204Z,101160.45
2023-04-10T12:07:32.651Z,101155.27
2023-04-10T12:08:38.882Z,101154.65
2023-04-10T12:09:42.791Z,101154.83
2023-04-10T12:10:47.040Z,101154.90
2023-04-10T12:12:01.558Z,101153.27
2023-04-10T12:13:05.688Z,101149.50
2023-04-10T12:14:09.095Z,101149.93
2023-04-10T12:15:30.957Z,101144.91
2023-04-10T12:16:34.121Z,101143.41
2023-04-10T12:17:37.162Z,101144.77
2023-04-10T12:18:40.588Z,101143.10
2023-04-10T12:19:44.016Z,101136.80
2023-04-10T12:20:47.535Z,101134.38
2023-04-10T12:21:50.499Z,101134.05
2023-04-10T12:22:56.506Z,101135.14
2023-04-10T12:23:59.371Z,101136.54
2023-04-10T12:25:02.539Z,101129.70
2023-04-10T12:26:14.382Z,101131.13
2023-04-10T12:27:27.750Z,101125.02
2023-04-10T12:28:30.904Z,101126.85
2023-04-10T12:29:33.937Z,101120.64
2023-04-10T12:30:36.855Z,101125.45
2023-04-10T12:31:39.999Z,101124.41
2023-04-10T12:32:52.495Z,101122.84
2023-04-10T12:33:57.989Z,101121.49
2023-04-10T12:35:01.568Z,101128.95
2023-04-10T12:36:04.736Z,101117.87
2023-04-10T12:37:09.902Z,101119.62
2023-04-10T12:38:12.833Z,101118.41
2023-04-10T12:39:24.136Z,101118.09
2023-04-10T12:40:27.731Z,101119.48
2023-04-10T12:41:32.845Z,101115.88
2023-04-10T12:42:42.013Z,101113.08
2023-04-10T12:43:45.087Z,101112.42
2023-04-10T12:44:59.041Z,101105.83
2023-04-10T12:46:02.828Z,101106.27
2023-04-10T12:47:05.875Z,101100.39
2023-04-10T12:48:08.779Z,101104.86
2023-04-10T12:49:17.171Z,101100.52
2023-04-10T12:50:21.169Z,101099.17
2023-04-10T12:51:43.829Z,101099.13
2023-04-10T12:53:02.633Z,101096.05
2023-04-10T12:54:05.852Z,101094.89
2023-04-10T12:55:12.846Z,101093.29
2023-04-10T12:56:18.036Z,101094.23